createdAt,value
2017-11-24T00:00:40.452Z,97882.87
2017-11-24T00:03:07.980Z,97876.34
2017-11-24T00:05:35.480Z,97881.83
2017-11-24T00:08:02.975Z,97871.72
2017-11-24T00:10:30.476Z,97872.47
2017-11-24T00:12:57.998Z,97871.80
2017-11-24T00:15:25.535Z,97871.02
2017-11-24T00:17:53.061Z,97858.35
2017-11-24T00:20:20.560Z,97862.47
2017-11-24T00:22:48.090Z,97868.92
2017-11-24T00:25:15.644Z,97870.88
2017-11-24T00:27:43.155Z,97860.44
2017-11-24T00:30:10.662Z,97856.41
2017-11-24T00:32:38.179Z,97861.70
2017-11-24T00:35:05.706Z,97866.22
2017-11-24T00:37:44.957Z,97868.67
2017-11-24T00:40:12.452Z,97869.81
2017-11-24T00:42:39.952Z,97868.11
2017-11-24T00:45:07.477Z,97863.21
2017-11-24T00:47:35.181Z,97863.36
2017-11-24T00:50:02.708Z,97867.92
2017-11-24T00:52:30.294Z,97863.87
2017-11-24T00:54:57.799Z,97862.59
2017-11-24T00:57:25.316Z,97866.47
2017-11-24T00:59:52.820Z,97860.29
2017-11-24T01:02:20.725Z,97867.61
2017-11-24T01:04:48.272Z,97862.36
2017-11-24T01:07:15.780Z,97869.45
2017-11-24T01:09:43.293Z,97863.52
2017-11-24T01:12:10.804Z,97863.08
2017-11-24T01:14:38.326Z,97855.22
2017-11-24T01:17:05.822Z,97865.86
2017-11-24T01:19:33.320Z,97868.58
2017-11-24T01:22:00.822Z,97867.95
2017-11-24T01:24:28.347Z,97856.67
2017-11-24T01:26:55.856Z,97855.36
2017-11-24T01:29:23.375Z,97861.09
2017-11-24T01:31:50.871Z,97868.02
2017-11-24T01:34:18.366Z,97867.11
2017-11-24T01:36:45.865Z,97858.11
2017-11-24T01:39:13.363Z,97851.56
2017-11-24T01:41:40.876Z,97855.64
2017-11-24T01:44:08.406Z,97853.89
2017-11-24T01:46:35.958Z,97849.15
2017-11-24T01:49:03.465Z,97855.83
2017-11-24T01:51:30.964Z,97855.28
2017-11-24T01:53:58.464Z,97850.14
2017-11-24T01:56:25.960Z,97851.36
2017-11-24T01:58:53.475Z,97853.53
2017-11-24T02:01:20.980Z,97852.89
2017-11-24T02:03:48.497Z,97855.28
2017-11-24T02:06:15.998Z,97852.22
2017-11-24T02:08:43.503Z,97858.11
2017-11-24T02:11:12.690Z,97854.14
2017-11-24T02:13:40.198Z,97855.47
2017-11-24T02:16:07.727Z,97859.41
2017-11-24T02:18:35.233Z,97851.81
2017-11-24T02:21:02.743Z,97848.03
2017-11-24T02:23:30.253Z,97844.63
2017-11-24T02:25:57.765Z,97850.97
2017-11-24T02:28:25.283Z,97847.14
2017-11-24T02:30:52.780Z,97853.98
2017-11-24T02:33:20.297Z,97845.92
2017-11-24T02:35:47.813Z,97852.56
2017-11-24T02:38:15.342Z,97851.08
2017-11-24T02:40:42.838Z,97849.94
2017-11-24T02:43:10.935Z,97846.70
2017-11-24T02:45:38.453Z,97849.31
2017-11-24T02:48:05.947Z,97838.53
2017-11-24T02:50:33.460Z,97835.06
2017-11-24T02:53:00.975Z,97833.03
2017-11-24T02:55:29.376Z,97833.73
2017-11-24T02:57:57.518Z,97827.81
2017-11-24T03:00:25.033Z,97827.09
2017-11-24T03:02:52.565Z,97814.76
2017-11-24T03:05:20.070Z,97820.87
2017-11-24T03:07:47.576Z,97829.19
2017-11-24T03:10:15.067Z,97832.03
2017-11-24T03:12:42.568Z,97837.11
2017-11-24T03:15:10.090Z,97829.49
2017-11-24T03:17:37.587Z,97827.46
2017-11-24T03:20:05.100Z,97816.97
2017-11-24T03:22:32.640Z,97819.94
2017-11-24T03:25:00.145Z,97814.98
2017-11-24T03:27:27.644Z,97818.02
2017-11-24T03:29:55.148Z,97823.45
2017-11-24T03:32:22.647Z,97819.27
2017-11-24T03:34:50.159Z,97816.59
2017-11-24T03:37:17.655Z,97818.83
2017-11-24T03:39:45.140Z,97816.53
2017-11-24T03:42:12.648Z,97806.39
2017-11-24T03:44:40.139Z,97804.21
2017-11-24T03:47:07.660Z,97791.13
2017-11-24T03:49:35.168Z,97798.98
2017-11-24T03:52:02.664Z,97800.70
2017-11-24T03:54:30.166Z,97811.25
2017-11-24T03:56:57.678Z,97811.69
2017-11-24T03:59:25.190Z,97801.22
2017-11-24T04:01:52.689Z,97801.80
2017-11-24T04:04:20.192Z,97803.20
2017-11-24T04:06:47.683Z,97799.59
2017-11-24T04:09:15.163Z,97802.53
2017-11-24T04:11:42.673Z,97793.41
2017-11-24T04:14:10.182Z,97792.84
2017-11-24T04:16:37.674Z,97798.15
2017-11-24T04:19:05.165Z,97789.16
2017-11-24T04:21:32.663Z,97787.12
2017-11-24T04:24:00.352Z,97778.20
2017-11-24T04:26:27.856Z,97781.02
2017-11-24T04:28:55.354Z,97784.08
2017-11-24T04:31:22.862Z,97788.47
2017-11-24T04:33:50.362Z,97787.48
2017-11-24T04:36:17.854Z,97779.71
2017-11-24T04:38:45.353Z,97784.14
2017-11-24T04:41:12.850Z,97781.20
2017-11-24T04:43:40.362Z,97785.79
2017-11-24T04:48:43.156Z,97776.48
2017-11-24T04:51:17.423Z,97766.34
2017-11-24T04:53:44.934Z,97761.25
2017-11-24T04:56:12.433Z,97766.55
2017-11-24T04:58:39.931Z,97760.22
2017-11-24T05:01:07.439Z,97763.21
2017-11-24T05:03:34.951Z,97775.06
2017-11-24T05:06:02.457Z,97759.05
2017-11-24T05:08:29.965Z,97749.31
2017-11-24T05:10:57.486Z,97754.64
2017-11-24T05:13:24.982Z,97744.29
2017-11-24T05:15:52.483Z,97743.28
2017-11-24T05:18:19.974Z,97750.78
2017-11-24T05:20:47.496Z,97748.28
2017-11-24T05:23:15.031Z,97748.35
2017-11-24T05:25:42.525Z,97750.06
2017-11-24T05:28:10.028Z,97744.89
2017-11-24T05:30:37.537Z,97741.95
2017-11-24T05:33:05.039Z,97744.55
2017-11-24T05:35:32.540Z,97733.13
2017-11-24T05:38:00.057Z,97736.26
2017-11-24T05:40:27.571Z,97742.42
2017-11-24T05:42:56.144Z,97747.59
2017-11-24T05:45:23.647Z,97748.33
2017-11-24T05:47:51.164Z,97751.29
2017-11-24T05:50:18.655Z,97737.84
2017-11-24T05:52:46.160Z,97746.41
2017-11-24T05:55:13.668Z,97750.14
2017-11-24T05:57:41.163Z,97750.03
2017-11-24T06:00:08.682Z,97753.64
2017-11-24T06:02:36.180Z,97748.93
2017-11-24T06:05:03.678Z,97751.20
2017-11-24T06:07:31.179Z,97752.17
2017-11-24T06:09:58.690Z,97727.69
2017-11-24T06:12:26.180Z,97727.34
2017-11-24T06:14:53.673Z,97729.03
2017-11-24T06:17:21.180Z,97724.93
2017-11-24T06:19:48.692Z,97728.91
2017-11-24T06:22:16.211Z,97741.55
2017-11-24T06:24:43.739Z,97741.82
2017-11-24T06:27:11.373Z,97745.77
2017-11-24T06:29:38.897Z,97743.04
2017-11-24T06:32:06.419Z,97742.95
2017-11-24T06:34:33.938Z,97738.83
2017-11-24T06:37:01.439Z,97747.36
2017-11-24T06:39:28.958Z,97745.73
2017-11-24T06:41:56.467Z,97747.76
2017-11-24T06:44:23.951Z,97742.81
2017-11-24T06:46:51.482Z,97745.81
2017-11-24T06:49:18.978Z,97749.69
2017-11-24T06:51:46.488Z,97745.87
2017-11-24T06:54:13.996Z,97753.68
2017-11-24T06:56:41.490Z,97751.83
2017-11-24T06:59:09.028Z,97750.95
2017-11-24T07:01:36.530Z,97762.09
2017-11-24T07:04:04.063Z,97762.72
2017-11-24T07:06:31.560Z,97764.69
2017-11-24T07:08:59.073Z,97782.59
2017-11-24T07:11:26.579Z,97775.84
2017-11-24T07:13:54.838Z,97777.19
2017-11-24T07:16:22.369Z,97783.20
2017-11-24T07:18:49.879Z,97789.23
2017-11-24T07:21:17.385Z,97792.63
2017-11-24T07:23:44.879Z,97791.41
2017-11-24T07:26:12.383Z,97797.08
2017-11-24T07:28:39.881Z,97794.02
2017-11-24T07:31:07.389Z,97794.77
2017-11-24T07:33:34.897Z,97791.58
2017-11-24T07:36:02.390Z,97794.70
2017-11-24T07:38:29.911Z,97800.20
2017-11-24T07:40:57.412Z,97809.06
2017-11-24T07:43:24.933Z,97805.83
2017-11-24T07:45:52.514Z,97798.59
2017-11-24T07:48:20.030Z,97804.44
2017-11-24T07:50:47.624Z,97798.06
2017-11-24T07:53:15.144Z,97797.47
2017-11-24T07:55:42.661Z,97805.83
2017-11-24T07:58:10.173Z,97801.32
2017-11-24T08:00:37.698Z,97804.54
2017-11-24T08:03:05.191Z,97803.00
2017-11-24T08:05:32.738Z,97803.76
2017-11-24T08:08:00.237Z,97796.34
2017-11-24T08:10:27.747Z,97792.34
2017-11-24T08:12:55.271Z,97790.09
2017-11-24T08:15:22.775Z,97785.55
2017-11-24T08:17:50.283Z,97781.84
2017-11-24T08:20:17.801Z,97777.83
2017-11-24T08:22:45.300Z,97782.70
2017-11-24T08:25:12.815Z,97780.95
2017-11-24T08:27:40.317Z,97781.20
2017-11-24T08:30:07.833Z,97780.25
2017-11-24T08:32:35.358Z,97776.98
2017-11-24T08:35:03.841Z,97778.70
2017-11-24T08:37:31.340Z,97776.67
2017-11-24T08:39:58.859Z,97780.69
2017-11-24T08:42:26.362Z,97784.03
2017-11-24T08:44:53.880Z,97786.67
2017-11-24T08:47:27.703Z,97785.00
2017-11-24T08:49:55.206Z,97776.89
2017-11-24T08:52:22.720Z,97785.82
2017-11-24T08:54:50.232Z,97787.67
2017-11-24T08:57:17.766Z,97781.70
2017-11-24T08:59:45.291Z,97785.39
2017-11-24T09:02:12.802Z,97781.98
2017-11-24T09:04:40.301Z,97782.48
2017-11-24T09:07:07.799Z,97778.58
2017-11-24T09:09:35.337Z,97776.20
2017-11-24T09:12:02.840Z,97779.28
2017-11-24T09:14:30.352Z,97789.70
2017-11-24T09:16:57.999Z,97780.86
2017-11-24T09:19:25.545Z,97785.31
2017-11-24T09:21:53.050Z,97786.78
2017-11-24T09:24:20.548Z,97784.30
2017-11-24T09:26:48.054Z,97788.30
2017-11-24T09:29:15.548Z,97781.16
2017-11-24T09:31:43.082Z,97779.81
2017-11-24T09:34:10.597Z,97771.75
2017-11-24T09:36:38.089Z,97777.75
2017-11-24T09:39:05.594Z,97763.46
2017-11-24T09:41:33.118Z,97756.11
2017-11-24T09:44:00.622Z,97763.19
2017-11-24T09:46:28.118Z,97768.19
2017-11-24T09:48:55.728Z,97764.33
2017-11-24T09:51:23.269Z,97765.71
2017-11-24T09:53:50.803Z,97756.39
2017-11-24T09:56:18.314Z,97751.66
2017-11-24T09:58:45.837Z,97754.23
2017-11-24T10:01:13.347Z,97749.79
2017-11-24T10:03:40.868Z,97739.25
2017-11-24T10:06:08.374Z,97740.65
2017-11-24T10:08:35.891Z,97731.97
2017-11-24T10:11:03.395Z,97740.30
2017-11-24T10:13:30.900Z,97742.95
2017-11-24T10:15:58.391Z,97733.09
2017-11-24T10:18:25.887Z,97736.95
2017-11-24T10:20:59.007Z,97736.51
2017-11-24T10:23:26.506Z,97724.93
2017-11-24T10:25:54.022Z,97726.48
2017-11-24T10:28:21.534Z,97721.50
2017-11-24T10:30:49.046Z,97711.48
2017-11-24T10:33:16.543Z,97715.06
2017-11-24T10:35:44.072Z,97717.06
2017-11-24T10:38:11.575Z,97718.19
2017-11-24T10:40:39.068Z,97713.97
2017-11-24T10:43:06.599Z,97710.29
2017-11-24T10:45:34.101Z,97693.50
2017-11-24T10:48:01.599Z,97693.72
2017-11-24T10:50:29.124Z,97700.30
2017-11-24T10:52:56.652Z,97697.40
2017-11-24T10:55:24.163Z,97692.55
2017-11-24T10:57:51.718Z,97689.72
2017-11-24T11:00:19.223Z,97699.48
2017-11-24T11:02:46.728Z,97701.67
2017-11-24T11:05:14.261Z,97695.28
2017-11-24T11:07:41.771Z,97695.66
2017-11-24T11:10:09.305Z,97700.38
2017-11-24T11:12:36.823Z,97693.46
2017-11-24T11:15:04.334Z,97687.66
2017-11-24T11:17:31.865Z,97681.89
2017-11-24T11:19:59.375Z,97687.77
2017-11-24T11:22:26.871Z,97681.78
2017-11-24T11:24:54.378Z,97690.02
2017-11-24T11:27:21.871Z,97685.81
2017-11-24T11:29:49.380Z,97686.38
2017-11-24T11:32:16.898Z,97684.89
2017-11-24T11:34:44.402Z,97687.38
2017-11-24T11:37:11.909Z,97690.67
2017-11-24T11:39:39.428Z,97689.76
2017-11-24T11:42:06.935Z,97690.61
2017-11-24T11:44:34.439Z,97692.83
2017-11-24T11:47:01.978Z,97690.50
2017-11-24T11:49:29.481Z,97689.11
2017-11-24T11:51:56.998Z,97686.39
2017-11-24T11:54:24.517Z,97683.20
2017-11-24T11:56:52.023Z,97689.55
2017-11-24T11:59:19.556Z,97691.28
2017-11-24T12:01:47.058Z,97679.77
2017-11-24T12:04:14.593Z,97686.95
2017-11-24T12:06:42.088Z,97684.18
2017-11-24T12:09:09.586Z,97684.55
2017-11-24T12:11:37.095Z,97685.20
2017-11-24T12:14:04.767Z,97693.04
2017-11-24T12:16:32.282Z,97688.77
2017-11-24T12:18:59.791Z,97688.23
2017-11-24T12:21:27.287Z,97692.27
2017-11-24T12:23:54.803Z,97693.56
2017-11-24T12:26:22.341Z,97688.62
2017-11-24T12:28:49.855Z,97676.77
2017-11-24T12:31:17.359Z,97685.25
2017-11-24T12:33:44.867Z,97688.70
2017-11-24T12:36:12.395Z,97686.69
2017-11-24T12:38:39.891Z,97689.02
2017-11-24T12:41:07.418Z,97695.84
2017-11-24T12:43:34.911Z,97705.20
2017-11-24T12:46:02.423Z,97702.31
2017-11-24T12:48:30.068Z,97713.84
2017-11-24T12:50:57.558Z,97723.13
2017-11-24T12:53:25.143Z,97714.02
2017-11-24T12:55:52.706Z,97709.76
2017-11-24T12:58:20.239Z,97720.25
2017-11-24T13:00:47.878Z,97718.27
2017-11-24T13:03:15.415Z,97720.38
2017-11-24T13:05:42.933Z,97723.84
2017-11-24T13:08:10.439Z,97725.08
2017-11-24T13:10:37.936Z,97723.20
2017-11-24T13:13:05.431Z,97723.31
2017-11-24T13:15:32.948Z,97734.74
2017-11-24T13:18:00.446Z,97739.79
2017-11-24T13:20:27.967Z,97736.20
2017-11-24T13:22:55.460Z,97738.33
2017-11-24T13:25:22.961Z,97746.49
2017-11-24T13:27:50.452Z,97756.22
2017-11-24T13:30:17.964Z,97759.81
2017-11-24T13:32:45.461Z,97758.45
2017-11-24T13:35:12.971Z,97768.32
2017-11-24T13:37:40.472Z,97766.77
2017-11-24T13:40:07.985Z,97772.22
2017-11-24T13:42:35.480Z,97774.70
2017-11-24T13:45:03.068Z,97774.83
2017-11-24T13:47:30.559Z,97785.77
2017-11-24T13:49:58.130Z,97795.37
2017-11-24T13:52:26.594Z,97802.98
2017-11-24T13:54:54.132Z,97800.88
2017-11-24T13:57:21.653Z,97812.11
2017-11-24T13:59:49.163Z,97809.97
2017-11-24T14:02:16.661Z,97812.30
2017-11-24T14:04:44.172Z,97817.56
2017-11-24T14:07:11.699Z,97818.84
2017-11-24T14:09:39.230Z,97821.02
2017-11-24T14:12:06.723Z,97828.11
2017-11-24T14:14:34.216Z,97828.58
2017-11-24T14:17:01.726Z,97831.45
2017-11-24T14:19:29.225Z,97838.43
2017-11-24T14:21:56.747Z,97839.62
2017-11-24T14:24:24.233Z,97833.94
2017-11-24T14:26:52.023Z,97844.12
2017-11-24T14:29:19.542Z,97840.88
2017-11-24T14:31:47.060Z,97840.72
2017-11-24T14:34:14.562Z,97842.78
2017-11-24T14:36:42.067Z,97845.69
2017-11-24T14:39:09.577Z,97842.38
2017-11-24T14:41:37.072Z,97846.56
2017-11-24T14:44:04.565Z,97843.73
2017-11-24T14:46:32.103Z,97847.91
2017-11-24T14:48:59.599Z,97844.23
2017-11-24T14:51:27.104Z,97837.36
2017-11-24T14:53:54.604Z,97841.20
2017-11-24T14:56:22.160Z,97845.99
2017-11-24T14:58:49.694Z,97850.14
2017-11-24T15:01:17.213Z,97841.91
2017-11-24T15:03:44.762Z,97842.45
2017-11-24T15:06:12.278Z,97831.20
2017-11-24T15:08:39.775Z,97839.20
2017-11-24T15:11:07.278Z,97829.37
2017-11-24T15:13:34.821Z,97832.95
2017-11-24T15:16:02.330Z,97834.10
2017-11-24T15:18:29.862Z,97832.27
2017-11-24T15:20:57.371Z,97833.22
2017-11-24T15:23:24.893Z,97838.06
2017-11-24T15:25:52.409Z,97840.61
2017-11-24T15:28:19.919Z,97832.88
2017-11-24T15:30:47.423Z,97823.02
2017-11-24T15:33:14.923Z,97817.35
2017-11-24T15:35:42.428Z,97799.86
2017-11-24T15:38:09.931Z,97794.38
2017-11-24T15:40:37.472Z,97786.99
2017-11-24T15:43:05.054Z,97771.45
2017-11-24T15:45:32.571Z,97771.85
2017-11-24T15:48:00.079Z,97786.56
2017-11-24T15:50:27.586Z,97800.68
2017-11-24T15:52:55.120Z,97793.43
2017-11-24T15:55:22.610Z,97796.72
2017-11-24T15:57:50.114Z,97792.39
2017-11-24T16:00:17.640Z,97782.02
2017-11-24T16:02:45.162Z,97779.93
2017-11-24T16:05:12.660Z,97776.33
2017-11-24T16:07:40.202Z,97780.80
2017-11-24T16:10:07.944Z,97789.44
2017-11-24T16:12:35.474Z,97788.78
2017-11-24T16:15:02.996Z,97783.36
2017-11-24T16:17:30.507Z,97783.77
2017-11-24T16:19:58.056Z,97781.60
2017-11-24T16:22:25.570Z,97787.38
2017-11-24T16:24:53.063Z,97780.30
2017-11-24T16:27:20.597Z,97789.89
2017-11-24T16:29:48.136Z,97785.41
2017-11-24T16:32:15.731Z,97795.63
2017-11-24T16:34:43.228Z,97801.17
2017-11-24T16:37:10.747Z,97799.25
2017-11-24T16:39:38.245Z,97798.30
2017-11-24T16:42:05.762Z,97791.33
2017-11-24T16:44:33.289Z,97789.72
2017-11-24T16:47:00.912Z,97790.42
2017-11-24T16:49:28.471Z,97791.58
2017-11-24T16:51:56.035Z,97790.37
2017-11-24T16:54:23.555Z,97789.63
2017-11-24T16:56:51.105Z,97784.56
2017-11-24T16:59:18.668Z,97777.41
2017-11-24T17:01:46.219Z,97785.34
2017-11-24T17:04:13.962Z,97783.05
2017-11-24T17:06:42.413Z,97786.11
2017-11-24T17:09:09.903Z,97782.64
2017-11-24T17:11:37.418Z,97776.52
2017-11-24T17:14:04.978Z,97781.61
2017-11-24T17:16:32.497Z,97779.84
2017-11-24T17:19:00.018Z,97774.25
2017-11-24T17:21:27.515Z,97782.40
2017-11-24T17:23:55.028Z,97777.28
2017-11-24T17:26:22.539Z,97771.16
2017-11-24T17:28:50.196Z,97777.78
2017-11-24T17:31:17.709Z,97791.56
2017-11-24T17:33:45.231Z,97780.53
2017-11-24T17:36:12.756Z,97785.24
2017-11-24T17:38:40.259Z,97784.06
2017-11-24T17:41:07.755Z,97792.41
2017-11-24T17:43:35.284Z,97795.94
2017-11-24T17:46:02.857Z,97787.53
2017-11-24T17:48:30.371Z,97795.53
2017-11-24T17:50:57.877Z,97798.28
2017-11-24T17:53:25.409Z,97799.64
2017-11-24T17:55:52.914Z,97806.16
2017-11-24T17:58:20.429Z,97805.92
2017-11-24T18:00:47.927Z,97809.09
2017-11-24T18:03:15.435Z,97812.05
2017-11-24T18:05:42.979Z,97810.27
2017-11-24T18:08:10.472Z,97814.22
2017-11-24T18:10:37.977Z,97821.56
2017-11-24T18:13:05.500Z,97821.44
2017-11-24T18:15:33.018Z,97828.87
2017-11-24T18:18:00.519Z,97827.69
2017-11-24T18:20:28.032Z,97832.34
2017-11-24T18:22:55.546Z,97831.55
2017-11-24T18:25:23.049Z,97826.82
2017-11-24T18:27:50.551Z,97841.30
2017-11-24T18:30:18.082Z,97838.42
2017-11-24T18:32:45.604Z,97842.61
2017-11-24T18:35:13.118Z,97843.09
2017-11-24T18:37:40.639Z,97841.34
2017-11-24T18:40:08.167Z,97842.09
2017-11-24T18:42:35.710Z,97851.66
2017-11-24T18:45:03.248Z,97853.27
2017-11-24T18:47:31.022Z,97848.62
2017-11-24T18:49:58.531Z,97853.73
2017-11-24T18:52:26.051Z,97855.84
2017-11-24T18:54:53.691Z,97858.51
2017-11-24T18:57:21.212Z,97851.59
2017-11-24T18:59:48.712Z,97852.85
2017-11-24T19:02:16.237Z,97845.80
2017-11-24T19:04:43.755Z,97850.83
2017-11-24T19:07:11.257Z,97845.88
2017-11-24T19:09:38.795Z,97839.67
2017-11-24T19:12:06.312Z,97844.99
2017-11-24T19:14:33.823Z,97845.64
2017-11-24T19:17:01.382Z,97845.79
2017-11-24T19:19:28.908Z,97850.67
2017-11-24T19:21:56.411Z,97851.09
2017-11-24T19:24:25.570Z,97848.78
2017-11-24T19:26:53.098Z,97851.23
2017-11-24T19:29:20.604Z,97847.01
2017-11-24T19:31:48.104Z,97851.72
2017-11-24T19:34:15.611Z,97854.14
2017-11-24T19:36:43.257Z,97849.39
2017-11-24T19:39:10.746Z,97847.36
2017-11-24T19:41:38.278Z,97852.24
2017-11-24T19:44:05.828Z,97849.91
2017-11-24T19:46:33.374Z,97848.65
2017-11-24T19:49:00.944Z,97847.62
2017-11-24T19:51:28.504Z,97844.69
2017-11-24T19:53:56.084Z,97846.31
2017-11-24T19:56:23.645Z,97849.20
2017-11-24T19:58:51.308Z,97853.92
2017-11-24T20:01:19.111Z,97847.81
2017-11-24T20:03:46.968Z,97854.49
2017-11-24T20:06:14.846Z,97857.30
2017-11-24T20:08:42.701Z,97854.87
2017-11-24T20:11:10.672Z,97856.41
2017-11-24T20:13:38.533Z,97860.89
2017-11-24T20:16:06.537Z,97853.16
2017-11-24T20:18:34.473Z,97851.73
2017-11-24T20:21:02.440Z,97851.52
2017-11-24T20:23:30.307Z,97852.36
2017-11-24T20:25:58.275Z,97849.48
2017-11-24T20:28:26.241Z,97842.61
2017-11-24T20:30:54.095Z,97840.28
2017-11-24T20:33:22.178Z,97838.52
2017-11-24T20:35:50.054Z,97839.77
2017-11-24T20:38:18.034Z,97839.71
2017-11-24T20:40:57.869Z,97828.30
2017-11-24T20:43:25.825Z,97832.59
2017-11-24T20:45:53.693Z,97830.29
2017-11-24T20:48:21.663Z,97833.25
2017-11-24T20:50:50.373Z,97830.09
2017-11-24T20:53:18.320Z,97826.16
2017-11-24T20:55:46.389Z,97817.09
2017-11-24T20:58:14.565Z,97820.87
2017-11-24T21:00:42.427Z,97815.20
2017-11-24T21:03:10.293Z,97824.62
2017-11-24T21:05:38.161Z,97826.77
2017-11-24T21:08:06.023Z,97826.33
2017-11-24T21:10:33.878Z,97822.17
2017-11-24T21:13:01.654Z,97822.23
2017-11-24T21:15:29.386Z,97820.23
2017-11-24T21:17:57.074Z,97822.75
2017-11-24T21:20:24.742Z,97829.29
2017-11-24T21:22:52.278Z,97819.14
2017-11-24T21:25:19.781Z,97809.86
2017-11-24T21:27:47.299Z,97799.38
2017-11-24T21:30:14.817Z,97793.84
2017-11-24T21:32:42.381Z,97790.89
2017-11-24T21:35:09.893Z,97787.28
2017-11-24T21:37:37.403Z,97782.44
2017-11-24T21:40:04.915Z,97778.43
2017-11-24T21:42:32.417Z,97773.80
2017-11-24T21:44:59.914Z,97780.80
2017-11-24T21:47:27.417Z,97788.52
2017-11-24T21:49:54.944Z,97776.33
2017-11-24T21:52:22.435Z,97779.22
2017-11-24T21:54:49.929Z,97781.95
2017-11-24T21:57:17.478Z,97780.55
2017-11-24T21:59:44.985Z,97782.75
2017-11-24T22:02:12.487Z,97777.00
2017-11-24T22:04:39.988Z,97773.98
2017-11-24T22:07:07.549Z,97779.22
2017-11-24T22:09:35.051Z,97784.26
2017-11-24T22:12:02.705Z,97779.76
2017-11-24T22:14:30.238Z,97781.30
2017-11-24T22:16:57.740Z,97770.17
2017-11-24T22:19:25.231Z,97766.16
2017-11-24T22:21:52.742Z,97766.52
2017-11-24T22:24:20.254Z,97763.42
2017-11-24T22:26:47.788Z,97758.23
2017-11-24T22:29:15.297Z,97754.19
2017-11-24T22:31:42.791Z,97737.45
2017-11-24T22:34:10.296Z,97736.44
2017-11-24T22:36:37.817Z,97729.75
2017-11-24T22:39:05.358Z,97725.70
2017-11-24T22:41:32.877Z,97730.84
2017-11-24T22:44:00.389Z,97738.55
2017-11-24T22:46:27.929Z,97726.20
2017-11-24T22:48:55.432Z,97729.08
2017-11-24T22:51:22.930Z,97729.03
2017-11-24T22:53:50.431Z,97726.73
2017-11-24T22:56:17.934Z,97727.75
2017-11-24T22:58:45.470Z,97730.69
2017-11-24T23:01:12.993Z,97726.95
2017-11-24T23:03:40.511Z,97721.27
2017-11-24T23:06:08.025Z,97716.82
2017-11-24T23:08:35.560Z,97721.19
2017-11-24T23:11:03.069Z,97713.16
2017-11-24T23:13:30.596Z,97716.36
2017-11-24T23:15:58.091Z,97696.19
2017-11-24T23:18:25.591Z,97702.75
2017-11-24T23:20:53.102Z,97703.81
2017-11-24T23:23:20.603Z,97701.02
2017-11-24T23:25:48.097Z,97696.52
2017-11-24T23:28:15.582Z,97683.57
2017-11-24T23:30:43.099Z,97685.50
2017-11-24T23:33:10.595Z,97681.92
2017-11-24T23:35:38.105Z,97686.35
2017-11-24T23:38:05.678Z,97667.58
2017-11-24T23:40:33.180Z,97657.14
2017-11-24T23:43:00.798Z,97654.42
2017-11-24T23:45:28.297Z,97655.36
2017-11-24T23:47:55.791Z,97644.38
2017-11-24T23:50:23.281Z,97645.70
2017-11-24T23:52:50.775Z,97635.38
2017-11-24T23:55:18.270Z,97645.75
2017-11-24T23:57:45.790Z,97648.20
